Time;durP1;ratioP1;P1;durP2;ratioP2;P2;SDS_P1;SDS_P2;PMS_P1;PMS_P2;Temp;Humidity;BMP_temperature;BMP_pressure;BME280_temperature;BME280_humidity;BME280_pressure;Samples;Min_cycle;Max_cycle;Signal;HPM_P1;HPM_P2
2023/01/29 00:01:15;;;;;;;;;44.50;34.50;;;;;-147.17;100.00;-15917.19;4990463;28;51247;-62
2023/01/29 00:03:40;;;;;;;;;28.25;24.25;;;;;-147.17;100.00;-15917.19;4971092;28;51221;-61
2023/01/29 00:06:08;;;;;;;;;41.50;38.25;;;;;-147.17;100.00;-15917.19;4994520;28;51181;-61
2023/01/29 00:08:35;;;;;;;;;39.00;36.50;;;;;-147.17;100.00;-15917.19;4992759;28;51333;-61
2023/01/29 00:11:06;;;;;;;;;43.75;37.75;;;;;-147.17;100.00;-15917.19;4992536;28;51407;-62
2023/01/29 00:13:33;;;;;;;;;40.00;37.50;;;;;-147.17;100.00;-15917.19;4983927;28;51246;-61
2023/01/29 00:15:59;;;;;;;;;37.75;34.75;;;;;-147.17;100.00;-15917.19;4992408;28;50976;-62
2023/01/29 00:18:26;;;;;;;;;38.75;34.25;;;;;-147.17;100.00;-15917.19;4992231;28;51224;-62
2023/01/29 00:20:51;;;;;;;;;41.75;36.25;;;;;-147.17;100.00;-15917.19;4994651;28;52908;-65
2023/01/29 00:23:17;;;;;;;;;41.75;40.00;;;;;-147.17;100.00;-15917.19;4988014;28;51052;-63
2023/01/29 00:25:42;;;;;;;;;42.50;35.25;;;;;-147.17;100.00;-15917.19;4971462;28;51508;-61
2023/01/29 00:28:08;;;;;;;;;39.25;36.75;;;;;-147.17;100.00;-15917.19;4988849;28;51258;-62
2023/01/29 00:30:35;;;;;;;;;43.75;37.25;;;;;-147.17;100.00;-15917.19;4987161;28;51376;-62
2023/01/29 00:33:00;;;;;;;;;43.50;37.50;;;;;-147.17;100.00;-15917.19;4986413;28;51241;-61
2023/01/29 00:35:26;;;;;;;;;39.00;36.75;;;;;-147.17;100.00;-15917.19;4984469;28;51237;-62
2023/01/29 00:37:51;;;;;;;;;40.00;35.00;;;;;-147.17;100.00;-15917.19;4988578;28;51240;-62
2023/01/29 00:40:17;;;;;;;;;51.25;40.50;;;;;-147.17;100.00;-15917.19;4975093;28;51175;-62
2023/01/29 00:45:29;;;;;;;;;48.50;41.50;;;;;-147.17;100.00;-15917.19;4990637;28;53953;-62
2023/01/29 00:47:54;;;;;;;;;39.50;35.00;;;;;-147.17;100.00;-15917.19;4991512;28;51078;-62
2023/01/29 00:50:20;;;;;;;;;50.25;40.75;;;;;-147.17;100.00;-15917.19;4992449;28;52246;-64
2023/01/29 00:52:47;;;;;;;;;35.75;34.25;;;;;-147.17;100.00;-15917.19;4992258;28;50944;-62
2023/01/29 00:55:13;;;;;;;;;52.25;44.00;;;;;-147.17;100.00;-15917.19;4973349;28;51209;-62
2023/01/29 00:57:38;;;;;;;;;40.25;35.00;;;;;-147.17;100.00;-15917.19;4992031;28;51395;-62
2023/01/29 01:00:06;;;;;;;;;37.00;34.25;;;;;-147.17;100.00;-15917.19;4993303;28;51018;-62
2023/01/29 01:05:17;;;;;;;;;33.50;30.75;;;;;-147.17;100.00;-15917.19;4989684;28;51094;-62
2023/01/29 01:07:47;;;;;;;;;46.50;38.75;;;;;-147.17;100.00;-15917.19;4993955;28;51353;-63
2023/01/29 01:10:21;;;;;;;;;42.00;35.50;;;;;-147.17;100.00;-15917.19;4995102;28;52426;-61
2023/01/29 01:13:01;;;;;;;;;48.75;42.25;;;;;-147.17;100.00;-15917.19;4988995;28;51138;-61
2023/01/29 01:15:29;;;;;;;;;44.75;39.00;;;;;-147.17;100.00;-15917.19;4993177;28;51147;-62
2023/01/29 01:17:57;;;;;;;;;36.75;27.25;;;;;-147.17;100.00;-15917.19;4993452;28;51637;-63
2023/01/29 01:20:25;;;;;;;;;44.75;40.25;;;;;-147.17;100.00;-15917.19;4992158;28;51255;-62
2023/01/29 01:22:52;;;;;;;;;39.75;33.75;;;;;-147.17;100.00;-15917.19;4991597;28;51191;-63
2023/01/29 01:25:18;;;;;;;;;49.00;37.25;;;;;-147.17;100.00;-15917.19;4974992;28;51111;-62
2023/01/29 01:27:43;;;;;;;;;47.00;39.25;;;;;-147.17;100.00;-15917.19;4992823;28;51048;-63
2023/01/29 01:30:14;;;;;;;;;38.00;33.75;;;;;-147.17;100.00;-15917.19;4991767;28;51054;-62
2023/01/29 01:32:41;;;;;;;;;42.50;37.50;;;;;-147.17;100.00;-15917.19;4973234;28;51176;-62
2023/01/29 01:35:07;;;;;;;;;49.50;38.75;;;;;-147.17;100.00;-15917.19;4991523;28;51673;-63
2023/01/29 01:37:36;;;;;;;;;46.00;41.00;;;;;-147.17;100.00;-15917.19;4971974;28;51364;-62
2023/01/29 01:40:04;;;;;;;;;43.50;40.75;;;;;-147.17;100.00;-15917.19;4991920;28;51641;-62
2023/01/29 01:42:30;;;;;;;;;45.75;40.00;;;;;-147.17;100.00;-15917.19;4974109;28;51240;-61
2023/01/29 01:45:03;;;;;;;;;45.25;40.50;;;;;-147.17;100.00;-15917.19;4995327;28;51146;-62
2023/01/29 01:47:31;;;;;;;;;50.50;37.50;;;;;-147.17;100.00;-15917.19;4995788;28;51020;-61
2023/01/29 01:50:07;;;;;;;;;48.25;42.75;;;;;-147.17;100.00;-15917.19;4988461;28;52426;-62
2023/01/29 01:52:34;;;;;;;;;50.50;40.75;;;;;-147.17;100.00;-15917.19;4991567;28;51142;-63
2023/01/29 01:55:00;;;;;;;;;49.25;41.75;;;;;-147.17;100.00;-15917.19;4992781;28;51057;-62
2023/01/29 01:57:27;;;;;;;;;40.50;33.50;;;;;-147.17;100.00;-15917.19;4974918;28;51235;-63
2023/01/29 01:59:59;;;;;;;;;45.25;41.75;;;;;-147.17;100.00;-15917.19;4985674;28;51118;-61
2023/01/29 02:10:45;;;;;;;;;54.75;44.50;;;;;-147.17;100.00;-15917.19;4988028;28;51138;-61
2023/01/29 02:13:11;;;;;;;;;46.00;43.00;;;;;-147.17;100.00;-15917.19;4994292;28;51192;-62
2023/01/29 02:15:40;;;;;;;;;46.00;40.00;;;;;-147.17;100.00;-15917.19;4991783;28;51255;-64
2023/01/29 02:18:07;;;;;;;;;44.75;41.25;;;;;-147.17;100.00;-15917.19;4991547;28;51981;-62
2023/01/29 02:20:32;;;;;;;;;45.50;39.25;;;;;-147.17;100.00;-15917.19;4972689;28;53186;-63
2023/01/29 02:23:22;;;;;;;;;51.00;42.25;;;;;-147.17;100.00;-15917.19;4974302;28;51253;-61
2023/01/29 02:26:21;;;;;;;;;45.25;41.00;;;;;-147.17;100.00;-15917.19;4990477;28;51164;-61
2023/01/29 02:29:21;;;;;;;;;46.75;42.75;;;;;-147.17;100.00;-15917.19;4986568;28;51454;-61
2023/01/29 02:31:51;;;;;;;;;43.50;34.00;;;;;-147.17;100.00;-15917.19;4988164;28;51905;-63
2023/01/29 02:34:27;;;;;;;;;42.50;38.50;;;;;-147.17;100.00;-15917.19;4991780;28;51144;-63
2023/01/29 02:37:03;;;;;;;;;25.75;22.75;;;;;-147.17;100.00;-15917.19;4989423;28;51173;-62
2023/01/29 02:40:03;;;;;;;;;43.25;40.50;;;;;-147.17;100.00;-15917.19;4991708;28;51122;-61
2023/01/29 02:42:48;;;;;;;;;35.00;33.25;;;;;-147.17;100.00;-15917.19;4990402;28;51067;-61
2023/01/29 02:45:21;;;;;;;;;38.25;38.00;;;;;-147.17;100.00;-15917.19;4986787;28;51115;-62
2023/01/29 02:47:57;;;;;;;;;49.00;43.00;;;;;-147.17;100.00;-15917.19;4989155;28;51396;-61
2023/01/29 02:50:33;;;;;;;;;52.00;43.00;;;;;-147.17;100.00;-15917.19;4989145;28;51123;-61
2023/01/29 02:52:58;;;;;;;;;43.50;34.75;;;;;-147.17;100.00;-15917.19;4990893;28;52298;-61
2023/01/29 02:55:42;;;;;;;;;47.50;40.75;;;;;-147.17;100.00;-15917.19;4989701;28;51009;-61
2023/01/29 02:58:31;;;;;;;;;49.00;42.50;;;;;-147.17;100.00;-15917.19;4987838;28;51222;-61
2023/01/29 03:01:03;;;;;;;;;45.25;41.50;;;;;-147.17;100.00;-15917.19;4989463;28;51150;-62
2023/01/29 03:03:37;;;;;;;;;43.25;41.25;;;;;-147.17;100.00;-15917.19;4989705;28;51968;-62
2023/01/29 03:06:24;;;;;;;;;41.00;39.25;;;;;-147.17;100.00;-15917.19;4990531;28;51110;-60
2023/01/29 03:08:59;;;;;;;;;51.25;43.00;;;;;-147.17;100.00;-15917.19;4989917;28;51127;-62
2023/01/29 03:11:50;;;;;;;;;48.75;41.00;;;;;-147.17;100.00;-15917.19;4992277;28;52082;-62
2023/01/29 03:14:22;;;;;;;;;49.75;41.00;;;;;-147.17;100.00;-15917.19;4986188;28;51403;-61
2023/01/29 03:16:52;;;;;;;;;39.00;36.75;;;;;-147.17;100.00;-15917.19;4989415;28;51145;-62
2023/01/29 03:19:40;;;;;;;;;47.25;43.50;;;;;-147.17;100.00;-15917.19;4990133;28;51172;-62
2023/01/29 03:22:09;;;;;;;;;48.25;44.50;;;;;-147.17;100.00;-15917.19;4994305;28;51183;-61
2023/01/29 03:33:09;;;;;;;;;57.75;45.75;;;;;-147.17;100.00;-15917.19;4993194;28;51283;-62
2023/01/29 03:35:42;;;;;;;;;45.75;42.25;;;;;-147.17;100.00;-15917.19;4992460;28;52203;-62
2023/01/29 03:38:10;;;;;;;;;47.75;43.00;;;;;-147.17;100.00;-15917.19;4992508;28;52804;-62
2023/01/29 03:41:03;;;;;;;;;50.75;42.75;;;;;-147.17;100.00;-15917.19;4993641;28;51203;-62
2023/01/29 03:43:28;;;;;;;;;49.25;43.50;;;;;-147.17;100.00;-15917.19;4996639;28;51393;-62
2023/01/29 03:46:17;;;;;;;;;40.25;37.00;;;;;-147.17;100.00;-15917.19;4990386;28;52246;-63
2023/01/29 03:48:53;;;;;;;;;46.25;41.00;;;;;-147.17;100.00;-15917.19;4985079;28;50973;-62
2023/01/29 03:51:59;;;;;;;;;44.75;39.00;;;;;-147.17;100.00;-15917.19;4992020;28;51066;-62
2023/01/29 03:54:38;;;;;;;;;43.75;40.75;;;;;-147.17;100.00;-15917.19;4934404;28;51340;-62
2023/01/29 03:57:11;;;;;;;;;43.75;40.75;;;;;-147.17;100.00;-15917.19;4931934;28;51256;-62
2023/01/29 03:59:43;;;;;;;;;51.25;42.50;;;;;-147.17;100.00;-15917.19;4969982;28;51068;-62
2023/01/29 04:02:20;;;;;;;;;40.00;38.25;;;;;-147.17;100.00;-15917.19;4991229;28;51371;-62
2023/01/29 04:04:50;;;;;;;;;54.00;44.00;;;;;-147.17;100.00;-15917.19;4989951;28;51267;-62
2023/01/29 04:07:23;;;;;;;;;43.75;38.75;;;;;-147.17;100.00;-15917.19;4991433;28;52392;-62
2023/01/29 04:10:08;;;;;;;;;41.50;38.50;;;;;-147.17;100.00;-15917.19;4970541;28;51159;-63
2023/01/29 04:12:54;;;;;;;;;48.25;40.50;;;;;-147.17;100.00;-15917.19;4971831;28;52935;-62
2023/01/29 04:15:22;;;;;;;;;46.75;42.00;;;;;-147.17;100.00;-15917.19;4974380;28;51131;-62
2023/01/29 04:17:51;;;;;;;;;43.75;38.25;;;;;-147.17;100.00;-15917.19;4991720;28;52857;-62
2023/01/29 04:20:17;;;;;;;;;48.75;43.50;;;;;-147.17;100.00;-15917.19;4990038;28;51051;-62
2023/01/29 04:22:48;;;;;;;;;44.50;41.00;;;;;-147.17;100.00;-15917.19;4989966;28;51250;-62
2023/01/29 04:25:25;;;;;;;;;41.75;38.00;;;;;-147.17;100.00;-15917.19;4992969;28;51250;-62
2023/01/29 04:28:18;;;;;;;;;48.75;42.25;;;;;-147.17;100.00;-15917.19;4973068;28;53848;-61
2023/01/29 04:31:02;;;;;;;;;35.50;33.00;;;;;-147.17;100.00;-15917.19;4982155;28;51112;-62
2023/01/29 04:33:59;;;;;;;;;51.50;42.50;;;;;-147.17;100.00;-15917.19;4992521;28;51027;-63
2023/01/29 04:36:45;;;;;;;;;45.25;40.50;;;;;-147.17;100.00;-15917.19;4981557;28;51292;-63
2023/01/29 04:39:21;;;;;;;;;47.25;42.00;;;;;-147.17;100.00;-15917.19;4990581;28;51108;-62
2023/01/29 04:41:58;;;;;;;;;54.50;45.50;;;;;-147.17;100.00;-15917.19;4989062;28;51107;-63
2023/01/29 04:44:32;;;;;;;;;50.75;42.25;;;;;-147.17;100.00;-15917.19;4990489;28;51218;-62
2023/01/29 04:47:59;;;;;;;;;49.00;44.00;;;;;-147.17;100.00;-15917.19;4993637;28;51322;-63
2023/01/29 04:50:32;;;;;;;;;50.50;43.25;;;;;-147.17;100.00;-15917.19;4904531;28;52148;-63
2023/01/29 04:53:10;;;;;;;;;49.00;41.50;;;;;-147.17;100.00;-15917.19;4916370;28;51216;-63
2023/01/29 04:55:42;;;;;;;;;46.75;42.75;;;;;-147.17;100.00;-15917.19;4937583;28;51325;-63
2023/01/29 04:58:13;;;;;;;;;56.25;46.75;;;;;-147.17;100.00;-15917.19;4974246;28;51223;-63
2023/01/29 05:00:44;;;;;;;;;54.75;45.00;;;;;-147.17;100.00;-15917.19;4991438;28;51145;-63
2023/01/29 05:03:12;;;;;;;;;54.00;44.50;;;;;-147.17;100.00;-15917.19;4993456;28;51156;-62
2023/01/29 05:05:47;;;;;;;;;50.00;44.00;;;;;-147.17;100.00;-15917.19;4987818;28;51564;-62
2023/01/29 05:08:18;;;;;;;;;47.75;42.25;;;;;-147.17;100.00;-15917.19;4993321;28;51169;-63
2023/01/29 05:10:45;;;;;;;;;54.75;45.00;;;;;-147.17;100.00;-15917.19;4991234;28;52594;-62
2023/01/29 05:13:13;;;;;;;;;47.50;44.00;;;;;-147.17;100.00;-15917.19;4987447;28;51178;-62
2023/01/29 05:15:45;;;;;;;;;50.50;44.50;;;;;-147.17;100.00;-15917.19;4986096;28;51171;-62
2023/01/29 05:18:11;;;;;;;;;49.75;41.25;;;;;-147.17;100.00;-15917.19;4989939;28;51090;-63
2023/01/29 05:20:39;;;;;;;;;53.75;43.75;;;;;-147.17;100.00;-15917.19;4992440;28;52466;-62
2023/01/29 05:23:09;;;;;;;;;52.75;44.50;;;;;-147.17;100.00;-15917.19;4987387;28;51796;-63
2023/01/29 05:25:35;;;;;;;;;45.50;41.00;;;;;-147.17;100.00;-15917.19;4988652;28;51186;-62
2023/01/29 05:28:03;;;;;;;;;44.75;42.75;;;;;-147.17;100.00;-15917.19;4989942;28;51603;-63
2023/01/29 05:30:30;;;;;;;;;51.50;45.00;;;;;-147.17;100.00;-15917.19;4988973;28;51145;-63
2023/01/29 05:32:55;;;;;;;;;51.00;44.25;;;;;-147.17;100.00;-15917.19;4988180;28;51120;-62
2023/01/29 05:35:21;;;;;;;;;53.50;43.50;;;;;-147.17;100.00;-15917.19;4990018;28;51094;-63
2023/01/29 05:37:47;;;;;;;;;56.00;46.00;;;;;-147.17;100.00;-15917.19;4972286;28;51430;-63
2023/01/29 05:40:12;;;;;;;;;55.00;45.50;;;;;-147.17;100.00;-15917.19;4988827;28;51999;-63
2023/01/29 05:42:37;;;;;;;;;42.00;37.50;;;;;-147.17;100.00;-15917.19;4987497;28;51055;-62
2023/01/29 05:45:04;;;;;;;;;50.00;43.75;;;;;-147.17;100.00;-15917.19;4991288;28;50965;-62
2023/01/29 05:47:29;;;;;;;;;51.00;45.00;;;;;-147.17;100.00;-15917.19;4974489;28;51396;-62
2023/01/29 05:49:54;;;;;;;;;43.75;38.75;;;;;-147.17;100.00;-15917.19;4987990;28;52302;-62
2023/01/29 05:52:20;;;;;;;;;48.50;42.50;;;;;-147.17;100.00;-15917.19;4987289;28;51253;-62
2023/01/29 05:54:45;;;;;;;;;51.50;42.75;;;;;-147.17;100.00;-15917.19;4992421;28;51238;-62
2023/01/29 05:57:10;;;;;;;;;40.50;38.75;;;;;-147.17;100.00;-15917.19;4990047;28;53061;-62
2023/01/29 05:59:36;;;;;;;;;51.00;43.75;;;;;-147.17;100.00;-15917.19;4991127;28;51201;-63
2023/01/29 06:02:01;;;;;;;;;49.00;44.50;;;;;-147.17;100.00;-15917.19;4993198;28;51220;-62
2023/01/29 06:04:26;;;;;;;;;43.25;39.75;;;;;-147.17;100.00;-15917.19;4988595;28;51325;-62
2023/01/29 06:06:52;;;;;;;;;49.75;40.25;;;;;-147.17;100.00;-15917.19;4990948;28;51214;-63
2023/01/29 06:09:17;;;;;;;;;47.25;40.75;;;;;-147.17;100.00;-15917.19;4989550;28;51810;-62
2023/01/29 06:11:42;;;;;;;;;41.75;38.25;;;;;-147.17;100.00;-15917.19;4991094;28;51281;-62
2023/01/29 06:14:08;;;;;;;;;40.00;39.50;;;;;-147.17;100.00;-15917.19;4991222;28;51059;-63
2023/01/29 06:16:33;;;;;;;;;56.25;45.25;;;;;-147.17;100.00;-15917.19;4990746;28;51307;-62
2023/01/29 06:18:59;;;;;;;;;52.50;46.00;;;;;-147.17;100.00;-15917.19;4993718;28;52971;-62
2023/01/29 06:21:24;;;;;;;;;45.25;40.75;;;;;-147.17;100.00;-15917.19;4986519;28;50972;-63
2023/01/29 06:23:52;;;;;;;;;50.75;44.00;;;;;-147.17;100.00;-15917.19;4988517;28;51102;-62
2023/01/29 06:26:17;;;;;;;;;48.25;42.25;;;;;-147.17;100.00;-15917.19;4971686;28;51011;-62
2023/01/29 06:28:44;;;;;;;;;39.25;36.25;;;;;-147.17;100.00;-15917.19;5001317;28;51161;-63
2023/01/29 06:31:10;;;;;;;;;50.50;44.75;;;;;-147.17;100.00;-15917.19;4983783;28;52607;-62
2023/01/29 06:33:35;;;;;;;;;52.25;42.25;;;;;-147.17;100.00;-15917.19;4988086;28;51059;-63
2023/01/29 06:36:03;;;;;;;;;45.75;41.50;;;;;-147.17;100.00;-15917.19;4988451;28;51340;-62
2023/01/29 06:38:29;;;;;;;;;47.00;41.00;;;;;-147.17;100.00;-15917.19;4988511;28;51984;-62
2023/01/29 06:40:56;;;;;;;;;49.50;44.00;;;;;-147.17;100.00;-15917.19;4985273;28;51411;-62
2023/01/29 06:43:22;;;;;;;;;45.75;43.00;;;;;-147.17;100.00;-15917.19;4988729;28;51110;-62
2023/01/29 06:45:55;;;;;;;;;52.75;43.75;;;;;-147.17;100.00;-15917.19;4988761;28;51286;-63
2023/01/29 06:48:22;;;;;;;;;44.75;40.75;;;;;-147.17;100.00;-15917.19;4969990;28;51388;-64
2023/01/29 06:50:50;;;;;;;;;49.50;41.75;;;;;-147.17;100.00;-15917.19;4989066;28;51392;-63
2023/01/29 06:53:17;;;;;;;;;51.00;41.25;;;;;-147.17;100.00;-15917.19;4984179;28;51333;-62
2023/01/29 06:55:49;;;;;;;;;55.00;45.25;;;;;-147.17;100.00;-15917.19;4992140;28;51467;-63
2023/01/29 06:58:15;;;;;;;;;43.75;39.50;;;;;-147.17;100.00;-15917.19;4975570;28;51218;-62
2023/01/29 07:00:40;;;;;;;;;51.50;43.75;;;;;-147.17;100.00;-15917.19;4990323;28;52040;-63
2023/01/29 07:03:05;;;;;;;;;55.25;45.75;;;;;-147.17;100.00;-15917.19;4975560;28;51214;-61
2023/01/29 07:05:31;;;;;;;;;46.25;39.75;;;;;-147.17;100.00;-15917.19;4994999;28;51075;-61
2023/01/29 07:07:57;;;;;;;;;48.25;39.50;;;;;-147.17;100.00;-15917.19;4995552;28;51256;-62
2023/01/29 07:10:22;;;;;;;;;29.25;29.25;;;;;-147.17;100.00;-15917.19;4991789;28;50983;-62
2023/01/29 07:12:48;;;;;;;;;42.00;39.50;;;;;-147.17;100.00;-15917.19;4971825;28;51173;-62
2023/01/29 07:15:13;;;;;;;;;50.25;42.50;;;;;-147.17;100.00;-15917.19;4991574;28;51324;-61
2023/01/29 07:17:39;;;;;;;;;52.25;42.25;;;;;-147.17;100.00;-15917.19;4991449;28;51295;-61
2023/01/29 07:20:05;;;;;;;;;49.50;42.50;;;;;-147.17;100.00;-15917.19;4992397;28;51266;-61
2023/01/29 07:22:31;;;;;;;;;46.50;43.00;;;;;-147.17;100.00;-15917.19;4995731;28;51208;-62
2023/01/29 07:24:57;;;;;;;;;52.00;45.00;;;;;-147.17;100.00;-15917.19;4994913;28;51078;-62
2023/01/29 07:27:22;;;;;;;;;51.25;44.50;;;;;-147.17;100.00;-15917.19;4979496;28;51290;-62
2023/01/29 07:29:48;;;;;;;;;55.00;46.00;;;;;-147.17;100.00;-15917.19;4988330;28;51867;-62
2023/01/29 07:32:13;;;;;;;;;50.75;42.00;;;;;-147.17;100.00;-15917.19;4991474;28;51384;-61
2023/01/29 07:34:38;;;;;;;;;46.25;39.75;;;;;-147.17;100.00;-15917.19;4994477;28;51217;-62
2023/01/29 07:37:05;;;;;;;;;47.50;42.00;;;;;-147.17;100.00;-15917.19;4988895;28;51314;-62
2023/01/29 07:39:31;;;;;;;;;47.50;40.25;;;;;-147.17;100.00;-15917.19;4991311;28;51134;-62
2023/01/29 07:41:56;;;;;;;;;45.25;40.50;;;;;-147.17;100.00;-15917.19;4990484;28;51057;-62
2023/01/29 07:44:22;;;;;;;;;48.75;44.00;;;;;-147.17;100.00;-15917.19;4992097;28;51403;-62
2023/01/29 07:46:47;;;;;;;;;52.75;44.25;;;;;-147.17;100.00;-15917.19;4988707;28;51886;-62
2023/01/29 07:49:12;;;;;;;;;32.75;26.50;;;;;-147.17;100.00;-15917.19;4989425;28;51212;-63
2023/01/29 07:51:38;;;;;;;;;48.75;42.00;;;;;-147.17;100.00;-15917.19;4973710;28;51206;-62
2023/01/29 07:54:03;;;;;;;;;61.25;49.25;;;;;-147.17;100.00;-15917.19;4996662;28;51263;-61
2023/01/29 07:56:29;;;;;;;;;52.25;43.75;;;;;-147.17;100.00;-15917.19;4990330;28;52267;-61
2023/01/29 07:58:55;;;;;;;;;56.25;46.50;;;;;-147.17;100.00;-15917.19;4991672;28;51169;-61
2023/01/29 08:01:20;;;;;;;;;51.50;46.50;;;;;-147.17;100.00;-15917.19;4991225;28;51676;-61
2023/01/29 08:03:46;;;;;;;;;69.50;50.00;;;;;-147.17;100.00;-15917.19;4989871;28;51181;-61
2023/01/29 08:06:11;;;;;;;;;49.25;43.00;;;;;-147.17;100.00;-15917.19;4990150;28;51913;-61
2023/01/29 08:08:36;;;;;;;;;58.75;48.75;;;;;-147.17;100.00;-15917.19;4991989;28;52368;-63
2023/01/29 08:11:04;;;;;;;;;47.50;42.75;;;;;-147.17;100.00;-15917.19;4999730;28;51310;-62
2023/01/29 08:13:29;;;;;;;;;50.50;44.50;;;;;-147.17;100.00;-15917.19;4972717;28;51281;-62
2023/01/29 08:16:00;;;;;;;;;45.00;41.25;;;;;-147.17;100.00;-15917.19;4974494;28;52546;-62
2023/01/29 08:18:25;;;;;;;;;58.50;47.75;;;;;-147.17;100.00;-15917.19;4990791;28;51393;-62
2023/01/29 08:20:50;;;;;;;;;55.25;46.75;;;;;-147.17;100.00;-15917.19;4991846;28;51816;-62
2023/01/29 08:23:16;;;;;;;;;55.25;47.00;;;;;-147.17;100.00;-15917.19;4997686;28;51234;-62
2023/01/29 08:25:42;;;;;;;;;56.00;44.00;;;;;-147.17;100.00;-15917.19;4986706;28;50985;-61
2023/01/29 08:28:08;;;;;;;;;55.00;46.25;;;;;-147.17;100.00;-15917.19;4990740;28;51110;-61
2023/01/29 08:30:34;;;;;;;;;51.50;45.50;;;;;-147.17;100.00;-15917.19;4991358;28;51079;-61
2023/01/29 08:33:00;;;;;;;;;61.75;49.25;;;;;-147.17;100.00;-15917.19;4991034;28;51343;-61
2023/01/29 08:35:25;;;;;;;;;50.75;44.50;;;;;-147.17;100.00;-15917.19;4987626;28;51882;-61
2023/01/29 08:37:57;;;;;;;;;50.75;44.00;;;;;-147.17;100.00;-15917.19;4992769;28;51282;-62
2023/01/29 08:40:22;;;;;;;;;52.00;47.50;;;;;-147.17;100.00;-15917.19;4993344;28;51056;-62
2023/01/29 08:42:48;;;;;;;;;58.50;48.25;;;;;-147.17;100.00;-15917.19;4991281;28;51851;-62
2023/01/29 08:45:13;;;;;;;;;62.25;52.00;;;;;-147.17;100.00;-15917.19;4989879;28;51972;-62
2023/01/29 08:47:44;;;;;;;;;56.00;46.25;;;;;-147.17;100.00;-15917.19;4991428;28;51251;-62
2023/01/29 08:50:10;;;;;;;;;56.00;45.50;;;;;-147.17;100.00;-15917.19;4974749;28;51098;-62
2023/01/29 08:52:35;;;;;;;;;55.00;47.75;;;;;-147.17;100.00;-15917.19;4995051;28;51192;-62
2023/01/29 08:55:01;;;;;;;;;59.00;48.50;;;;;-147.17;100.00;-15917.19;4988549;28;52199;-62
2023/01/29 08:57:26;;;;;;;;;58.25;49.00;;;;;-147.17;100.00;-15917.19;4990905;28;51062;-62
2023/01/29 08:59:51;;;;;;;;;56.50;48.00;;;;;-147.17;100.00;-15917.19;4990488;28;51091;-62
2023/01/29 09:02:17;;;;;;;;;60.75;48.00;;;;;-147.17;100.00;-15917.19;4990417;28;51154;-62
2023/01/29 09:04:42;;;;;;;;;58.75;49.25;;;;;-147.17;100.00;-15917.19;4992795;28;52136;-63
2023/01/29 09:07:07;;;;;;;;;46.00;43.25;;;;;-147.17;100.00;-15917.19;5002723;28;51127;-62
2023/01/29 09:09:33;;;;;;;;;54.25;46.25;;;;;-147.17;100.00;-15917.19;4992170;28;51372;-61
2023/01/29 09:11:58;;;;;;;;;60.75;50.50;;;;;-147.17;100.00;-15917.19;4990733;28;51264;-61
2023/01/29 09:14:23;;;;;;;;;64.25;51.75;;;;;-147.17;100.00;-15917.19;4991634;28;51316;-61
2023/01/29 09:16:49;;;;;;;;;59.00;47.75;;;;;-147.17;100.00;-15917.19;4956061;28;51226;-61
2023/01/29 09:19:14;;;;;;;;;64.00;50.75;;;;;-147.17;100.00;-15917.19;4991848;28;51078;-61
2023/01/29 09:21:39;;;;;;;;;63.75;52.50;;;;;-147.17;100.00;-15917.19;4994315;28;51149;-62
2023/01/29 09:24:05;;;;;;;;;60.50;49.25;;;;;-147.17;100.00;-15917.19;4987516;28;52031;-62
2023/01/29 09:26:30;;;;;;;;;56.00;45.75;;;;;-147.17;100.00;-15917.19;4970186;28;51180;-61
2023/01/29 09:28:56;;;;;;;;;60.50;48.75;;;;;-147.17;100.00;-15917.19;4990608;28;51450;-61
2023/01/29 09:31:21;;;;;;;;;56.75;44.00;;;;;-147.17;100.00;-15917.19;4972449;28;51397;-61
2023/01/29 09:33:46;;;;;;;;;62.00;50.75;;;;;-147.17;100.00;-15917.19;4989457;28;51855;-62
2023/01/29 09:36:12;;;;;;;;;58.50;46.50;;;;;-147.17;100.00;-15917.19;4985055;28;51787;-62
2023/01/29 09:38:37;;;;;;;;;60.50;48.00;;;;;-147.17;100.00;-15917.19;4991818;28;51175;-62
2023/01/29 09:41:27;;;;;;;;;59.50;48.00;;;;;-147.17;100.00;-15917.19;4990798;28;51118;-61
2023/01/29 09:44:01;;;;;;;;;61.75;47.75;;;;;-147.17;100.00;-15917.19;4988167;28;51291;-61
2023/01/29 09:46:37;;;;;;;;;64.75;51.00;;;;;-147.17;100.00;-15917.19;4989589;28;51082;-60
2023/01/29 09:49:27;;;;;;;;;70.25;53.00;;;;;-147.17;100.00;-15917.19;4983225;28;51054;-61
2023/01/29 09:52:10;;;;;;;;;65.75;53.75;;;;;-147.17;100.00;-15917.19;4991320;28;51431;-61
2023/01/29 09:55:04;;;;;;;;;63.50;48.75;;;;;-147.17;100.00;-15917.19;4972869;28;52330;-62
2023/01/29 09:57:46;;;;;;;;;59.00;49.50;;;;;-147.17;100.00;-15917.19;4988180;28;51518;-61
2023/01/29 10:00:22;;;;;;;;;65.25;52.00;;;;;-147.17;100.00;-15917.19;4988918;28;51122;-61
2023/01/29 10:03:15;;;;;;;;;48.75;41.25;;;;;-147.17;100.00;-15917.19;4972219;28;51501;-68
2023/01/29 10:06:08;;;;;;;;;65.00;53.00;;;;;-147.17;100.00;-15917.19;4987313;28;51887;-67
2023/01/29 10:08:58;;;;;;;;;64.25;53.00;;;;;-147.17;100.00;-15917.19;4998367;28;51186;-68
2023/01/29 10:11:46;;;;;;;;;61.00;50.00;;;;;-147.17;100.00;-15917.19;4996529;28;51259;-62
2023/01/29 10:14:54;;;;;;;;;63.25;51.50;;;;;-147.17;100.00;-15917.19;4988004;28;51368;-63
2023/01/29 10:17:44;;;;;;;;;62.75;51.75;;;;;-147.17;100.00;-15917.19;4985033;28;51263;-64
2023/01/29 10:20:35;;;;;;;;;55.00;47.50;;;;;-147.17;100.00;-15917.19;4990882;28;51067;-63
2023/01/29 10:23:14;;;;;;;;;58.25;46.50;;;;;-147.17;100.00;-15917.19;4988113;28;51083;-63
2023/01/29 10:25:41;;;;;;;;;64.25;50.25;;;;;-147.17;100.00;-15917.19;4982633;28;51109;-65
2023/01/29 10:28:35;;;;;;;;;63.25;47.25;;;;;-147.17;100.00;-15917.19;4962946;28;52691;-63
2023/01/29 10:31:07;;;;;;;;;57.75;48.50;;;;;-147.17;100.00;-15917.19;4992855;28;51072;-63
2023/01/29 10:33:41;;;;;;;;;62.50;49.25;;;;;-147.17;100.00;-15917.19;4992857;28;51153;-64
2023/01/29 10:36:15;;;;;;;;;55.50;43.00;;;;;-147.17;100.00;-15917.19;4993265;28;51195;-65
2023/01/29 10:38:52;;;;;;;;;58.50;47.50;;;;;-147.17;100.00;-15917.19;4975798;28;53976;-64
2023/01/29 10:41:54;;;;;;;;;60.50;49.00;;;;;-147.17;100.00;-15917.19;4989054;28;51227;-66
2023/01/29 10:44:41;;;;;;;;;62.00;51.50;;;;;-147.17;100.00;-15917.19;4994087;28;50989;-67
2023/01/29 10:47:45;;;;;;;;;58.00;46.50;;;;;-147.17;100.00;-15917.19;4993044;28;51107;-63
2023/01/29 10:50:28;;;;;;;;;68.25;55.25;;;;;-147.17;100.00;-15917.19;4952625;28;52731;-65
2023/01/29 10:53:21;;;;;;;;;59.50;47.75;;;;;-147.17;100.00;-15917.19;4993969;28;51222;-65
2023/01/29 10:56:08;;;;;;;;;63.25;49.75;;;;;-147.17;100.00;-15917.19;4994813;28;51507;-64
2023/01/29 10:58:50;;;;;;;;;61.50;49.00;;;;;-147.17;100.00;-15917.19;4993706;28;51121;-64
2023/01/29 11:01:15;;;;;;;;;57.50;49.25;;;;;-147.17;100.00;-15917.19;4991187;28;51785;-65
2023/01/29 11:03:41;;;;;;;;;53.25;45.50;;;;;-147.17;100.00;-15917.19;4993883;28;51237;-64
2023/01/29 11:06:26;;;;;;;;;63.00;49.50;;;;;-147.17;100.00;-15917.19;4991691;28;51032;-64
2023/01/29 11:08:58;;;;;;;;;60.00;46.25;;;;;-147.17;100.00;-15917.19;4992385;28;51209;-66
2023/01/29 11:11:34;;;;;;;;;56.50;45.50;;;;;-147.17;100.00;-15917.19;4994823;28;52708;-64
2023/01/29 11:14:08;;;;;;;;;59.00;47.50;;;;;-147.17;100.00;-15917.19;4994314;28;51134;-64
2023/01/29 11:16:42;;;;;;;;;51.50;42.75;;;;;-147.17;100.00;-15917.19;4976156;28;51170;-64
2023/01/29 11:19:07;;;;;;;;;60.25;47.50;;;;;-147.17;100.00;-15917.19;4991058;28;51198;-63
2023/01/29 11:21:55;;;;;;;;;60.50;48.75;;;;;-147.17;100.00;-15917.19;4990229;28;51356;-66
2023/01/29 11:24:20;;;;;;;;;65.00;51.00;;;;;-147.17;100.00;-15917.19;4992478;28;51158;-65
2023/01/29 11:26:48;;;;;;;;;49.75;43.25;;;;;-147.17;100.00;-15917.19;4994026;28;51012;-65
2023/01/29 11:29:26;;;;;;;;;52.00;42.50;;;;;-147.17;100.00;-15917.19;4993407;28;51149;-63